createdAt,value
2024-01-06T00:02:47.094Z,91.66
2024-01-06T00:07:48.777Z,91.69
2024-01-06T00:12:50.519Z,91.59
2024-01-06T00:17:52.262Z,92.31
2024-01-06T00:22:53.942Z,91.99
2024-01-06T00:27:55.618Z,91.85
2024-01-06T00:32:57.397Z,91.25
2024-01-06T00:38:01.756Z,91.75
2024-01-06T00:43:03.560Z,91.24
2024-01-06T00:48:06.152Z,91.15
2024-01-06T00:53:07.957Z,91.67
2024-01-06T00:58:09.923Z,92.36
2024-01-06T01:03:11.704Z,91.56
2024-01-06T01:08:13.341Z,92.13
2024-01-06T01:13:14.998Z,92.02
2024-01-06T01:18:16.866Z,92.47
2024-01-06T01:23:18.527Z,91.15
2024-01-06T01:28:20.267Z,92.42
2024-01-06T01:33:22.295Z,92.10
2024-01-06T01:38:23.969Z,93.07
2024-01-06T01:43:25.703Z,92.43
2024-01-06T01:48:27.675Z,93.27
2024-01-06T01:53:29.577Z,91.95
2024-01-06T01:58:31.450Z,92.83
2024-01-06T02:03:33.901Z,91.78
2024-01-06T02:08:35.623Z,92.06
2024-01-06T02:13:38.714Z,92.15
2024-01-06T02:18:40.461Z,92.36
2024-01-06T02:23:42.105Z,92.62
2024-01-06T02:28:48.931Z,93.22
2024-01-06T02:33:50.839Z,92.13
2024-01-06T02:38:52.505Z,91.80
2024-01-06T02:43:55.930Z,91.99
2024-01-06T02:48:57.692Z,91.91
2024-01-06T02:53:59.355Z,92.09
2024-01-06T02:59:00.949Z,92.86
2024-01-06T03:04:02.774Z,91.91
2024-01-06T03:09:04.527Z,90.16
2024-01-06T03:14:06.140Z,91.40
2024-01-06T03:19:07.954Z,92.14
2024-01-06T03:24:10.479Z,92.45
2024-01-06T03:29:12.948Z,92.10
2024-01-06T03:34:14.813Z,90.76
2024-01-06T03:39:16.620Z,91.52
2024-01-06T03:44:18.253Z,90.51
2024-01-06T03:49:21.963Z,91.46
2024-01-06T03:54:23.978Z,90.72
2024-01-06T03:59:25.618Z,91.32
2024-01-06T04:04:27.222Z,91.02
2024-01-06T04:09:28.891Z,90.53
2024-01-06T04:14:30.500Z,91.00
2024-01-06T04:19:32.513Z,91.51
2024-01-06T04:24:38.473Z,91.08
2024-01-06T04:29:40.618Z,91.55
2024-01-06T04:34:43.074Z,91.90
2024-01-06T04:39:44.885Z,91.75
2024-01-06T04:44:46.584Z,91.99
2024-01-06T04:49:48.375Z,91.84
2024-01-06T04:54:50.169Z,91.45
2024-01-06T04:59:51.920Z,92.06
2024-01-06T05:04:53.586Z,90.98
2024-01-06T05:09:55.273Z,90.39
2024-01-06T05:14:56.935Z,90.80
2024-01-06T05:19:59.668Z,91.09
2024-01-06T05:25:01.308Z,91.71
2024-01-06T05:30:03.474Z,91.91
2024-01-06T05:35:05.973Z,90.74
2024-01-06T05:40:08.465Z,90.42
2024-01-06T05:45:14.300Z,90.76
2024-01-06T05:50:17.216Z,90.35
2024-01-06T05:55:18.865Z,90.79
2024-01-06T06:00:20.753Z,91.34
2024-01-06T06:05:22.451Z,90.69
2024-01-06T06:10:24.152Z,91.66
2024-01-06T06:15:25.839Z,92.11
2024-01-06T06:20:27.480Z,91.85
2024-01-06T06:25:29.075Z,90.92
2024-01-06T06:30:30.753Z,91.68
2024-01-06T06:35:32.452Z,90.29
2024-01-06T06:40:34.074Z,90.52
2024-01-06T06:45:36.283Z,89.75
2024-01-06T06:50:38.014Z,91.20
2024-01-06T06:55:39.781Z,91.15
2024-01-06T07:00:41.679Z,90.98
2024-01-06T07:05:43.464Z,90.83
2024-01-06T07:10:45.984Z,89.62
2024-01-06T07:15:47.624Z,89.73
2024-01-06T07:20:49.452Z,89.31
2024-01-06T07:25:51.046Z,89.52
2024-01-06T07:30:52.732Z,89.43
2024-01-06T07:35:54.406Z,89.59
2024-01-06T07:40:56.003Z,89.33
2024-01-06T07:45:58.121Z,88.94
2024-01-06T07:50:59.741Z,89.00
2024-01-06T07:56:01.387Z,88.60
2024-01-06T08:01:03.184Z,88.81
2024-01-06T08:06:05.243Z,87.84
2024-01-06T08:11:06.873Z,87.55
2024-01-06T08:16:08.512Z,87.97
2024-01-06T08:21:10.165Z,88.46
2024-01-06T08:26:13.553Z,88.14
2024-01-06T08:31:15.717Z,88.76
2024-01-06T08:36:18.299Z,88.69
2024-01-06T08:41:19.933Z,87.46
2024-01-06T08:46:21.595Z,88.19
2024-01-06T08:51:23.276Z,89.08
2024-01-06T08:56:24.887Z,89.34
2024-01-06T09:01:26.699Z,88.97
2024-01-06T09:06:28.437Z,88.94
2024-01-06T09:11:30.050Z,89.50
2024-01-06T09:16:31.691Z,89.83
2024-01-06T09:21:33.369Z,89.56
2024-01-06T09:26:38.135Z,90.41
2024-01-06T09:31:40.157Z,90.14
2024-01-06T09:36:41.956Z,89.34
2024-01-06T09:41:43.867Z,89.45
2024-01-06T09:46:45.945Z,88.78
2024-01-06T09:51:52.427Z,89.03
2024-01-06T09:56:54.175Z,89.47
2024-01-06T10:01:57.580Z,89.54
2024-01-06T10:06:59.525Z,89.17
2024-01-06T10:12:01.381Z,89.47
2024-01-06T10:17:03.840Z,89.78
2024-01-06T10:22:05.640Z,89.88
2024-01-06T10:27:10.008Z,90.23
2024-01-06T10:32:11.715Z,90.57
2024-01-06T10:37:13.635Z,90.17
2024-01-06T10:42:16.469Z,89.73
2024-01-06T10:47:19.604Z,88.50
2024-01-06T10:52:22.261Z,89.24
2024-01-06T10:57:24.756Z,90.09
2024-01-06T11:02:27.615Z,90.95
2024-01-06T11:07:29.914Z,90.93
2024-01-06T11:12:31.692Z,90.35
2024-01-06T11:17:57.035Z,90.59
2024-01-06T11:23:20.545Z,91.08
2024-01-06T11:28:22.269Z,90.85
2024-01-06T11:33:23.978Z,89.09
2024-01-06T11:38:25.623Z,89.75
2024-01-06T11:43:28.257Z,89.56
2024-01-06T11:48:33.052Z,90.23
2024-01-06T11:53:34.920Z,89.88
2024-01-06T11:58:36.648Z,89.27
2024-01-06T12:03:38.389Z,90.15
2024-01-06T12:08:40.624Z,89.67
2024-01-06T12:13:42.242Z,89.31
2024-01-06T12:18:43.941Z,89.08
2024-01-06T12:23:45.624Z,88.72
2024-01-06T12:28:47.829Z,88.89
2024-01-06T12:33:49.690Z,89.88
2024-01-06T12:38:52.297Z,89.26
2024-01-06T12:43:54.055Z,89.00
2024-01-06T12:48:56.059Z,89.04
2024-01-06T12:53:57.879Z,89.66
2024-01-06T12:58:59.522Z,89.41
2024-01-06T13:04:02.641Z,88.65
2024-01-06T13:09:07.530Z,87.96
2024-01-06T13:14:10.028Z,87.76
2024-01-06T13:19:11.770Z,89.10
2024-01-06T13:24:13.568Z,88.86
2024-01-06T13:29:15.192Z,88.76
2024-01-06T13:34:17.223Z,88.64
2024-01-06T13:39:22.135Z,88.66
2024-01-06T13:44:24.152Z,88.32
2024-01-06T13:49:26.021Z,87.35
2024-01-06T13:54:27.939Z,87.94
2024-01-06T13:59:29.728Z,87.67
2024-01-06T14:04:31.705Z,87.11
2024-01-06T14:09:33.559Z,88.45
2024-01-06T14:14:35.258Z,87.17
2024-01-06T14:19:38.097Z,87.03
2024-01-06T14:24:39.733Z,87.28
2024-01-06T14:29:42.542Z,87.69
2024-01-06T14:34:44.425Z,87.15
2024-01-06T14:39:46.821Z,87.53
2024-01-06T14:44:48.469Z,87.46
2024-01-06T14:49:50.190Z,87.30
2024-01-06T14:54:51.954Z,87.39
2024-01-06T14:59:53.665Z,87.79
2024-01-06T15:04:56.046Z,87.56
2024-01-06T15:10:04.301Z,86.67
2024-01-06T15:15:08.378Z,86.83
2024-01-06T15:20:11.401Z,87.19
2024-01-06T15:25:13.354Z,87.61
2024-01-06T15:30:17.328Z,88.16
2024-01-06T15:35:20.591Z,88.34
2024-01-06T15:40:23.250Z,86.82
2024-01-06T15:45:24.956Z,88.11
2024-01-06T15:50:26.705Z,88.29
2024-01-06T15:55:28.289Z,88.02
2024-01-06T16:00:29.960Z,87.89
2024-01-06T16:05:31.682Z,88.29
2024-01-06T16:10:33.357Z,88.78
2024-01-06T16:15:35.079Z,88.18
2024-01-06T16:20:36.713Z,88.24
2024-01-06T16:25:39.458Z,88.33
2024-01-06T16:30:42.293Z,88.75
2024-01-06T16:35:47.074Z,89.27
2024-01-06T16:40:48.767Z,89.15
2024-01-06T16:45:50.541Z,87.63
2024-01-06T16:50:52.227Z,87.33
2024-01-06T16:55:53.950Z,86.90
2024-01-06T17:00:55.927Z,87.91
2024-01-06T17:05:57.691Z,88.07
2024-01-06T17:10:59.341Z,87.37
2024-01-06T17:16:01.001Z,88.33
2024-01-06T17:21:03.516Z,88.12
2024-01-06T17:26:05.116Z,87.76
2024-01-06T17:31:06.803Z,87.68
2024-01-06T17:36:08.614Z,86.72
2024-01-06T17:41:10.241Z,87.17
2024-01-06T17:46:11.895Z,86.59
2024-01-06T17:51:13.627Z,87.70
2024-01-06T17:56:15.413Z,87.74
2024-01-06T18:01:17.231Z,87.99
2024-01-06T18:06:19.046Z,86.80
2024-01-06T18:11:20.841Z,86.97
2024-01-06T18:16:22.689Z,87.55
2024-01-06T18:21:24.395Z,87.29
2024-01-06T18:26:27.026Z,86.85
2024-01-06T18:31:28.664Z,87.96
2024-01-06T18:36:30.387Z,86.04
2024-01-06T18:41:32.034Z,87.21
2024-01-06T18:46:33.668Z,87.41
2024-01-06T18:51:38.613Z,86.98
2024-01-06T18:56:40.403Z,88.02
2024-01-06T19:01:44.519Z,87.74
2024-01-06T19:06:47.811Z,87.84
2024-01-06T19:11:49.472Z,87.31
2024-01-06T19:16:51.625Z,87.58
2024-01-06T19:21:53.282Z,86.96
2024-01-06T19:26:55.859Z,87.49
2024-01-06T19:31:58.371Z,88.36
2024-01-06T19:37:00.225Z,88.69
2024-01-06T19:42:02.013Z,88.81
2024-01-06T19:47:03.834Z,88.50
2024-01-06T19:52:05.855Z,88.37
2024-01-06T19:57:09.073Z,88.29
2024-01-06T20:02:10.836Z,88.04
2024-01-06T20:07:12.661Z,86.44
2024-01-06T20:12:14.498Z,87.72
2024-01-06T20:17:16.567Z,87.81
2024-01-06T20:22:18.322Z,87.88
2024-01-06T20:27:20.402Z,87.96
2024-01-06T20:32:22.286Z,88.16
2024-01-06T20:37:26.253Z,87.87
2024-01-06T20:42:30.620Z,88.79
2024-01-06T20:47:32.413Z,88.29
2024-01-06T20:52:34.206Z,87.50
2024-01-06T20:57:35.918Z,88.02
2024-01-06T21:02:37.665Z,86.46
2024-01-06T21:07:42.543Z,87.32
2024-01-06T21:12:44.447Z,87.51
2024-01-06T21:17:46.215Z,88.13
2024-01-06T21:22:47.995Z,87.41
2024-01-06T21:27:49.837Z,87.33
2024-01-06T21:32:52.950Z,87.68
2024-01-06T21:37:54.662Z,87.82
2024-01-06T21:42:56.377Z,87.70
2024-01-06T21:47:58.238Z,87.67
2024-01-06T21:53:00.752Z,87.82
2024-01-06T21:58:02.417Z,87.91
2024-01-06T22:03:05.569Z,88.62
2024-01-06T22:08:08.271Z,89.70
2024-01-06T22:13:10.025Z,90.58
2024-01-06T22:18:11.832Z,90.46
2024-01-06T22:23:13.484Z,90.90
2024-01-06T22:28:15.399Z,91.29
2024-01-06T22:33:18.245Z,90.63
2024-01-06T22:38:19.982Z,88.83
2024-01-06T22:43:21.601Z,90.50
2024-01-06T22:48:23.298Z,89.65
2024-01-06T22:53:24.960Z,89.46
2024-01-06T22:58:26.757Z,87.14
2024-01-06T23:03:28.606Z,87.64
2024-01-06T23:08:30.321Z,87.66
2024-01-06T23:13:32.285Z,86.13
2024-01-06T23:18:34.137Z,86.04
2024-01-06T23:23:37.674Z,85.89
2024-01-06T23:28:39.277Z,86.31
2024-01-06T23:33:41.606Z,86.48
2024-01-06T23:38:43.422Z,85.50
2024-01-06T23:43:45.095Z,85.58
2024-01-06T23:48:46.871Z,87.39
2024-01-06T23:53:50.762Z,87.88
2024-01-06T23:58:53.855Z,86.39
